WB6DHP Weather Reports


Display with metric or nautical units.
time (UTC)temp
F
wind
direction
speed
MPH
gust
MPH
rain 1hr
in
rain 24hr
in
rain mn
in
humidity
%
barometer
mb
20211130052009 51 344 0.0 0.0 0.00 0.00 0.00 75 1020.1
20211130051009 51 343 0.0 0.0 0.00 0.00 0.00 76 1020.2
20211130050009 52 344 0.0 0.0 0.00 0.00 0.00 75 1020.1
20211130045009 52 344 0.0 0.0 0.00 0.00 0.00 75 1020.1
20211130044008 52 344 0.0 0.0 0.00 0.00 0.00 75 1020.1
20211130043008 52 344 0.0 0.0 0.00 0.00 0.00 76 1020.1
20211130042009 52 344 0.0 1.0 0.00 0.00 0.00 77 1020.1
20211130041008 53 344 0.0 0.0 0.00 0.00 0.00 76 1020.0
20211130040008 53 344 0.0 0.0 0.00 0.00 0.00 76 1019.9
20211130035009 54 344 0.0 0.0 0.00 0.00 0.00 75 1019.8
20211130034009 54 344 0.0 0.0 0.00 0.00 0.00 76 1019.8
20211130033008 54 344 0.0 0.0 0.00 0.00 0.00 75 1019.7
20211130032009 55 344 0.0 0.0 0.00 0.00 0.00 76 1019.6
20211130031008 55 344 0.0 0.0 0.00 0.00 0.00 77 1019.5
20211130030011 58 341 0.0 0.0 0.00 0.00 0.00 75 1019.2
20211130023012 57 344 0.0 0.0 0.00 0.00 0.00 75 1019.3
20211130022013 58 344 0.0 0.0 0.00 0.00 0.00 74 1019.2
20211130021012 59 344 0.0 0.0 0.00 0.00 0.00 72 1019.1
20211130020010 60 344 0.0 0.0 0.00 0.00 0.00 73 1019.0
20211130015010 61 344 0.0 0.0 0.00 0.00 0.00 71 1018.9
20211130014011 62 344 0.0 0.0 0.00 0.00 0.00 70 1018.9
20211130013012 63 344 0.0 0.0 0.00 0.00 0.00 68 1018.8
20211130012011 64 344 0.0 0.0 0.00 0.00 0.00 66 1018.9
20211130011012 66 344 0.0 0.0 0.00 0.00 0.00 63 1018.9
20211130010010 67 344 0.0 0.0 0.00 0.00 0.00 61 1019.1
20211130005012 69 344 0.0 0.0 0.00 0.00 0.00 58 1019.1
20211130004012 70 344 0.0 0.0 0.00 0.00 0.00 57 1019.0
20211130003011 70 344 0.0 2.0 0.00 0.00 0.00 55 1018.9
20211130002012 71 343 2.0 5.0 0.00 0.00 0.00 53 1018.9
20211130001011 71 332 3.0 5.0 0.00 0.00 0.00 53 1019.0
20211130000009 72 334 1.0 6.0 0.00 0.00 0.00 53 1018.9
20211129235012 72 344 3.0 6.0 0.00 0.00 0.00 52 1018.9
20211129234011 73 347 3.0 8.0 0.00 0.00 0.00 52 1018.9
20211129233014 73 327 2.0 9.0 0.00 0.00 0.00 51 1018.8
20211129232010 73 352 3.0 8.0 0.00 0.00 0.00 51 1018.9
20211129231011 73 320 2.0 7.0 0.00 0.00 0.00 51 1018.9
20211129230011 74 290 5.0 8.0 0.00 0.00 0.00 48 1018.8
20211129225011 74 320 3.0 6.0 0.00 0.00 0.00 50 1018.9
20211129224011 74 337 3.0 7.0 0.00 0.00 0.00 49 1018.9
20211129223012 74 316 2.0 7.0 0.00 0.00 0.00 49 1019.0
20211129222013 73 338 1.0 5.0 0.00 0.00 0.00 48 1019.0
20211129221012 73 314 1.0 5.0 0.00 0.00 0.00 49 1019.2
20211129220011 73 340 2.0 3.0 0.00 0.00 0.00 49 1019.4
20211129215010 72 4 3.0 5.0 0.00 0.00 0.00 49 1019.4
20211129214012 71 0 2.0 3.0 0.00 0.00 0.00 48 1019.6
20211129213013 71 21 1.0 6.0 0.00 0.00 0.00 53 1019.6
20211129212011 70 8 3.0 6.0 0.00 0.00 0.00 55 1019.8
20211129211012 70 7 3.0 6.0 0.00 0.00 0.00 55 1019.9
20211129210011 69 297 3.0 7.0 0.00 0.00 0.00 56 1020.1
20211129205011 69 301 3.0 8.0 0.00 0.00 0.00 57 1020.3
20211129204012 69 51 2.0 7.0 0.00 0.00 0.00 57 1020.4
20211129203010 69 341 3.0 8.0 0.00 0.00 0.00 57 1020.5
20211129202010 68 1 3.0 9.0 0.00 0.00 0.00 58 1020.6
20211129201011 68 346 6.0 10.0 0.00 0.00 0.00 58 1020.6
20211129200011 68 322 3.0 9.0 0.00 0.00 0.00 60 1020.7
20211129195011 68 323 4.0 10.0 0.00 0.00 0.00 58 1020.9
20211129194013 68 291 4.0 9.0 0.00 0.00 0.00 59 1020.9
20211129193010 68 306 2.0 8.0 0.00 0.00 0.00 61 1021.0
20211129192012 68 28 1.0 3.0 0.00 0.00 0.00 63 1021.1
20211129191011 67 53 1.0 3.0 0.00 0.00 0.00 65 1021.2
20211129190011 66 265 1.0 3.0 0.00 0.00 0.00 66 1021.4
20211129185010 64 265 1.0 3.0 0.00 0.00 0.00 68 1021.7
20211129184012 64 5 1.0 5.0 0.00 0.00 0.00 70 1021.9
20211129183011 63 45 1.0 5.0 0.00 0.00 0.00 71 1022.1
20211129182012 62 304 2.0 5.0 0.00 0.00 0.00 71 1022.2
20211129181011 62 342 2.0 5.0 0.00 0.00 0.00 71 1022.2
20211129180010 62 0 3.0 3.0 0.00 0.00 0.00 71 1022.2
20211129175011 61 355 0.0 0.0 0.00 0.00 0.00 72 1022.2
20211129174011 61 355 0.0 0.0 0.00 0.00 0.00 73 1022.2
20211129173011 60 355 0.0 0.0 0.00 0.00 0.00 75 1022.3
20211129172011 59 355 0.0 0.0 0.00 0.00 0.00 76 1022.3
20211129171012 58 355 0.0 0.0 0.00 0.00 0.00 78 1022.2
20211129170011 56 355 0.0 0.0 0.00 0.00 0.00 80 1022.2
20211129165015 55 355 0.0 0.0 0.00 0.00 0.00 83 1022.3
20211129164011 52 355 0.0 0.0 0.00 0.00 0.00 88 1022.3
20211129163009 50 355 0.0 0.0 0.00 0.00 0.00 92 1022.3
20211129162011 48 355 0.0 0.0 0.00 0.00 0.00 95 1022.2
20211129161009 47 355 0.0 0.0 0.00 0.00 0.00 95 1022.1
20211129160010 45 355 0.0 0.0 0.00 0.00 0.00 95 1022.1
20211129155011 45 355 0.0 0.0 0.00 0.00 0.00 95 1022.0
20211129154013 44 355 0.0 0.0 0.00 0.00 0.00 95 1022.0
20211129153014 44 355 0.0 0.0 0.00 0.00 0.00 95 1022.0
20211129152017 44 355 0.0 0.0 0.00 0.00 0.00 95 1022.0
20211129151013 44 355 0.0 0.0 0.00 0.00 0.00 95 1022.0
20211129150013 44 355 0.0 0.0 0.00 0.00 0.00 95 1021.9
20211129145011 44 355 0.0 0.0 0.00 0.00 0.00 95 1021.9
20211129144010 44 355 0.0 0.0 0.00 0.00 0.00 95 1021.9
20211129143009 44 355 0.0 0.0 0.00 0.00 0.00 95 1021.8
20211129142012 44 355 0.0 0.0 0.00 0.00 0.00 95 1021.9
20211129141010 44 355 0.0 0.0 0.00 0.00 0.00 95 1021.7
20211129140010 44 355 0.0 0.0 0.00 0.00 0.00 95 1021.7
20211129135010 44 355 0.0 0.0 0.00 0.00 0.00 95 1021.5
20211129134010 44 355 0.0 0.0 0.00 0.00 0.00 95 1021.6
20211129133009 44 355 0.0 0.0 0.00 0.00 0.00 95 1021.4
20211129132011 44 355 0.0 0.0 0.00 0.00 0.00 95 1021.5
20211129131010 44 355 0.0 0.0 0.00 0.00 0.00 95 1021.4
20211129130010 44 355 0.0 0.0 0.00 0.00 0.00 95 1021.6
20211129125010 45 355 0.0 0.0 0.00 0.00 0.00 95 1021.4
20211129124010 45 355 0.0 0.0 0.00 0.00 0.00 95 1021.6
20211129123009 45 355 0.0 0.0 0.00 0.00 0.00 95 1021.5
20211129122010 45 355 0.0 0.0 0.00 0.00 0.00 95 1021.6
20211129121010 45 355 0.0 0.0 0.00 0.00 0.00 95 1021.5
20211129120009 45 355 0.0 0.0 0.00 0.00 0.00 95 1021.5
20211129115010 45 355 0.0 0.0 0.00 0.00 0.00 95 1021.6
20211129114010 45 355 0.0 0.0 0.00 0.00 0.00 95 1021.6
20211129113011 46 355 0.0 0.0 0.00 0.00 0.00 95 1021.6
20211129112011 46 355 0.0 1.0 0.00 0.00 0.00 95 1021.7
20211129111011 46 355 1.0 2.0 0.00 0.00 0.00 95 1021.7
20211129110010 46 355 0.0 0.0 0.00 0.00 0.00 94 1021.8
20211129105011 46 355 0.0 0.0 0.00 0.00 0.00 94 1021.8
20211129104010 46 355 0.0 0.0 0.00 0.00 0.00 94 1021.9
20211129103009 46 355 0.0 0.0 0.00 0.00 0.00 94 1021.9
20211129102011 47 355 0.0 0.0 0.00 0.00 0.00 94 1021.9
20211129101011 47 355 0.0 0.0 0.00 0.00 0.00 94 1021.9
20211129100009 47 355 0.0 0.0 0.00 0.00 0.00 94 1022.0
20211129095009 47 355 0.0 0.0 0.00 0.00 0.00 94 1022.0
20211129094010 47 355 0.0 0.0 0.00 0.00 0.00 93 1021.9
20211129093010 47 355 0.0 0.0 0.00 0.00 0.00 93 1021.9
20211129092009 47 355 0.0 0.0 0.00 0.00 0.00 93 1021.9
20211129091009 48 355 0.0 0.0 0.00 0.00 0.00 92 1021.8
20211129090010 48 355 0.0 0.0 0.00 0.00 0.00 92 1021.7
20211129085010 48 355 0.0 0.0 0.00 0.00 0.00 92 1021.7
20211129084010 48 355 0.0 0.0 0.00 0.00 0.00 92 1021.7
20211129083009 48 355 0.0 0.0 0.00 0.00 0.00 92 1021.7
20211129082011 49 355 0.0 0.0 0.00 0.00 0.00 92 1021.7
20211129081010 49 355 0.0 0.0 0.00 0.00 0.00 92 1021.8
20211129080008 49 355 0.0 0.0 0.00 0.00 0.00 91 1021.8
20211129075009 49 355 0.0 0.0 0.00 0.00 0.00 91 1021.7
20211129074009 49 355 0.0 0.0 0.00 0.00 0.00 91 1021.7
20211129073011 49 355 0.0 0.0 0.00 0.00 0.00 91 1021.8
20211129072011 49 355 0.0 0.0 0.00 0.00 0.00 91 1021.7
20211129071009 49 355 0.0 0.0 0.00 0.00 0.00 91 1021.6
20211129070009 49 355 0.0 0.0 0.00 0.00 0.00 91 1021.6
20211129065009 49 355 0.0 0.0 0.00 0.00 0.00 91 1021.7
20211129064008 50 355 0.0 0.0 0.00 0.00 0.00 90 1021.7
20211129063009 50 355 0.0 0.0 0.00 0.00 0.00 90 1021.6
20211129062010 50 355 0.0 0.0 0.00 0.00 0.00 89 1021.6
20211129061008 50 355 0.0 0.0 0.00 0.00 0.00 88 1021.6
20211129060012 51 355 0.0 0.0 0.00 0.00 0.00 88 1021.6
20211129055011 51 355 0.0 0.0 0.00 0.00 0.00 88 1021.7
20211129054010 51 355 0.0 0.0 0.00 0.00 0.00 88 1021.8
20211129053010 51 355 0.0 0.0 0.00 0.00 0.00 88 1021.8